sensor_id;sensor_type;location;lat;lon;timestamp;pressure;altitude;pressure_sealevel;temperature;humidity
16431;BME280;8325;49.284;7.238;2023-10-19T04:02:03;96765.41;;;14.53;100.00
16431;BME280;8325;49.284;7.238;2023-10-19T04:06:22;96763.50;;;14.48;100.00
16431;BME280;8325;49.284;7.238;2023-10-19T04:10:33;96764.47;;;14.42;100.00
16431;BME280;8325;49.284;7.238;2023-10-19T04:14:45;96763.66;;;14.42;100.00
16431;BME280;8325;49.284;7.238;2023-10-19T04:18:58;96760.72;;;14.38;100.00
16431;BME280;8325;49.284;7.238;2023-10-19T04:23:09;96769.63;;;14.37;100.00
16431;BME280;8325;49.284;7.238;2023-10-19T04:27:27;96768.03;;;14.36;100.00
16431;BME280;8325;49.284;7.238;2023-10-19T04:31:40;96758.09;;;14.38;100.00
16431;BME280;8325;49.284;7.238;2023-10-19T04:36:01;96761.25;;;14.40;100.00
16431;BME280;8325;49.284;7.238;2023-10-19T04:40:13;96755.00;;;14.41;100.00
16431;BME280;8325;49.284;7.238;2023-10-19T04:44:25;96758.41;;;14.42;100.00
16431;BME280;8325;49.284;7.238;2023-10-19T04:48:38;96761.91;;;14.47;100.00
16431;BME280;8325;49.284;7.238;2023-10-19T04:52:51;96762.38;;;14.44;100.00
16431;BME280;8325;49.284;7.238;2023-10-19T04:57:03;96763.41;;;14.43;100.00
16431;BME280;8325;49.284;7.238;2023-10-19T05:01:14;96750.28;;;14.43;100.00
16431;BME280;8325;49.284;7.238;2023-10-19T05:05:26;96754.25;;;14.46;100.00
16431;BME280;8325;49.284;7.238;2023-10-19T05:09:38;96754.75;;;14.43;100.00
16431;BME280;8325;49.284;7.238;2023-10-19T05:13:52;96752.38;;;14.41;100.00
16431;BME280;8325;49.284;7.238;2023-10-19T05:18:04;96747.59;;;14.38;100.00
16431;BME280;8325;49.284;7.238;2023-10-19T05:22:16;96748.06;;;14.35;100.00
16431;BME280;8325;49.284;7.238;2023-10-19T05:26:28;96751.19;;;14.32;100.00
16431;BME280;8325;49.284;7.238;2023-10-19T05:30:39;96743.53;;;14.31;100.00
16431;BME280;8325;49.284;7.238;2023-10-19T05:34:51;96747.91;;;14.25;100.00
16431;BME280;8325;49.284;7.238;2023-10-19T05:39:03;96743.63;;;14.19;100.00
16431;BME280;8325;49.284;7.238;2023-10-19T05:43:21;96740.94;;;14.14;100.00
16431;BME280;8325;49.284;7.238;2023-10-19T05:47:32;96740.06;;;14.08;100.00
16431;BME280;8325;49.284;7.238;2023-10-19T05:51:44;96742.38;;;14.04;100.00
16431;BME280;8325;49.284;7.238;2023-10-19T05:55:56;96752.88;;;14.04;100.00
16431;BME280;8325;49.284;7.238;2023-10-19T06:00:09;96743.66;;;14.02;100.00
16431;BME280;8325;49.284;7.238;2023-10-19T06:04:26;96750.97;;;14.00;100.00
16431;BME280;8325;49.284;7.238;2023-10-19T06:08:40;96746.19;;;13.97;100.00
16431;BME280;8325;49.284;7.238;2023-10-19T06:12:52;96749.84;;;13.96;100.00
16431;BME280;8325;49.284;7.238;2023-10-19T06:17:03;96750.66;;;13.96;100.00
16431;BME280;8325;49.284;7.238;2023-10-19T06:21:17;96758.06;;;13.99;100.00
16431;BME280;8325;49.284;7.238;2023-10-19T06:25:32;96748.34;;;14.00;100.00
16431;BME280;8325;49.284;7.238;2023-10-19T06:29:44;96749.38;;;13.99;100.00
16431;BME280;8325;49.284;7.238;2023-10-19T06:33:55;96760.19;;;14.02;100.00
16431;BME280;8325;49.284;7.238;2023-10-19T06:38:08;96747.63;;;14.04;100.00
16431;BME280;8325;49.284;7.238;2023-10-19T06:42:21;96745.53;;;14.07;100.00
16431;BME280;8325;49.284;7.238;2023-10-19T06:46:32;96742.38;;;14.04;100.00
16431;BME280;8325;49.284;7.238;2023-10-19T06:50:44;96749.22;;;14.05;100.00
16431;BME280;8325;49.284;7.238;2023-10-19T06:55:03;96746.59;;;14.05;100.00
16431;BME280;8325;49.284;7.238;2023-10-19T06:59:15;96748.16;;;14.07;100.00
16431;BME280;8325;49.284;7.238;2023-10-19T07:03:28;96753.19;;;14.08;100.00
16431;BME280;8325;49.284;7.238;2023-10-19T07:07:40;96763.44;;;14.10;100.00
16431;BME280;8325;49.284;7.238;2023-10-19T07:11:52;96762.44;;;14.11;100.00
16431;BME280;8325;49.284;7.238;2023-10-19T07:16:11;96764.56;;;14.14;100.00
16431;BME280;8325;49.284;7.238;2023-10-19T07:20:23;96740.47;;;14.17;100.00
16431;BME280;8325;49.284;7.238;2023-10-19T07:24:38;96753.66;;;14.22;100.00
16431;BME280;8325;49.284;7.238;2023-10-19T07:28:49;96751.97;;;14.33;100.00
16431;BME280;8325;49.284;7.238;2023-10-19T07:33:02;96751.31;;;14.42;100.00
16431;BME280;8325;49.284;7.238;2023-10-19T07:37:42;96752.53;;;14.52;100.00
16431;BME280;8325;49.284;7.238;2023-10-19T07:41:58;96743.50;;;14.64;100.00
16431;BME280;8325;49.284;7.238;2023-10-19T07:46:11;96729.19;;;14.77;100.00
16431;BME280;8325;49.284;7.238;2023-10-19T07:50:55;96729.63;;;14.91;100.00
16431;BME280;8325;49.284;7.238;2023-10-19T07:55:16;96729.84;;;15.11;100.00
16431;BME280;8325;49.284;7.238;2023-10-19T07:59:35;96719.53;;;15.32;100.00
16431;BME280;8325;49.284;7.238;2023-10-19T08:03:47;96732.81;;;15.47;100.00
16431;BME280;8325;49.284;7.238;2023-10-19T08:07:59;96724.09;;;15.41;100.00
16431;BME280;8325;49.284;7.238;2023-10-19T08:12:16;96730.63;;;15.39;100.00
16431;BME280;8325;49.284;7.238;2023-10-19T08:16:29;96726.78;;;15.47;100.00
16431;BME280;8325;49.284;7.238;2023-10-19T08:20:41;96731.75;;;15.43;100.00
16431;BME280;8325;49.284;7.238;2023-10-19T08:24:57;96731.75;;;15.43;100.00
16431;BME280;8325;49.284;7.238;2023-10-19T08:29:12;96722.34;;;15.52;100.00
16431;BME280;8325;49.284;7.238;2023-10-19T08:33:26;96715.41;;;15.68;100.00
16431;BME280;8325;49.284;7.238;2023-10-19T08:37:38;96713.66;;;15.79;100.00
16431;BME280;8325;49.284;7.238;2023-10-19T08:41:53;96697.84;;;15.79;100.00
16431;BME280;8325;49.284;7.238;2023-10-19T08:46:07;96691.28;;;15.81;100.00
16431;BME280;8325;49.284;7.238;2023-10-19T08:50:19;96700.38;;;16.01;100.00
16431;BME280;8325;49.284;7.238;2023-10-19T08:54:35;96691.97;;;16.04;100.00
16431;BME280;8325;49.284;7.238;2023-10-19T08:58:47;96668.34;;;16.19;100.00
16431;BME280;8325;49.284;7.238;2023-10-19T09:02:58;96669.22;;;16.30;100.00
16431;BME280;8325;49.284;7.238;2023-10-19T09:07:11;96660.47;;;16.24;100.00
16431;BME280;8325;49.284;7.238;2023-10-19T09:11:23;96663.38;;;16.23;100.00
16431;BME280;8325;49.284;7.238;2023-10-19T09:15:36;96660.06;;;16.48;100.00
16431;BME280;8325;49.284;7.238;2023-10-19T09:19:49;96669.13;;;16.72;100.00
16431;BME280;8325;49.284;7.238;2023-10-19T09:24:01;96661.03;;;16.84;100.00
16431;BME280;8325;49.284;7.238;2023-10-19T09:28:12;96645.75;;;17.01;100.00
16431;BME280;8325;49.284;7.238;2023-10-19T09:32:25;96645.00;;;17.32;100.00
16431;BME280;8325;49.284;7.238;2023-10-19T09:36:38;96636.53;;;17.60;100.00
16431;BME280;8325;49.284;7.238;2023-10-19T09:40:50;96641.31;;;17.74;100.00
16431;BME280;8325;49.284;7.238;2023-10-19T09:45:03;96647.13;;;17.70;100.00
16431;BME280;8325;49.284;7.238;2023-10-19T09:49:17;96643.44;;;17.61;100.00
16431;BME280;8325;49.284;7.238;2023-10-19T09:53:30;96643.41;;;17.41;100.00
16431;BME280;8325;49.284;7.238;2023-10-19T09:57:53;96631.03;;;17.46;100.00
16431;BME280;8325;49.284;7.238;2023-10-19T10:02:12;96628.38;;;17.46;100.00
16431;BME280;8325;49.284;7.238;2023-10-19T10:06:29;96630.75;;;17.43;100.00
16431;BME280;8325;49.284;7.238;2023-10-19T10:10:42;96623.38;;;17.40;100.00
16431;BME280;8325;49.284;7.238;2023-10-19T10:15:04;96621.78;;;17.29;100.00
16431;BME280;8325;49.284;7.238;2023-10-19T10:19:20;96612.81;;;17.19;100.00
16431;BME280;8325;49.284;7.238;2023-10-19T10:23:32;96613.84;;;17.08;100.00
16431;BME280;8325;49.284;7.238;2023-10-19T10:27:51;96609.09;;;16.95;100.00
16431;BME280;8325;49.284;7.238;2023-10-19T10:32:03;96609.59;;;16.87;100.00
16431;BME280;8325;49.284;7.238;2023-10-19T10:36:20;96605.38;;;16.75;100.00
16431;BME280;8325;49.284;7.238;2023-10-19T10:40:46;96600.03;;;16.65;100.00
16431;BME280;8325;49.284;7.238;2023-10-19T10:45:01;96599.22;;;16.54;100.00
16431;BME280;8325;49.284;7.238;2023-10-19T10:49:17;96600.50;;;16.42;100.00
16431;BME280;8325;49.284;7.238;2023-10-19T10:53:28;96581.22;;;16.31;100.00
16431;BME280;8325;49.284;7.238;2023-10-19T10:57:41;96585.16;;;16.23;100.00
16431;BME280;8325;49.284;7.238;2023-10-19T11:01:53;96581.44;;;16.19;100.00
16431;BME280;8325;49.284;7.238;2023-10-19T11:06:09;96588.81;;;16.17;100.00
16431;BME280;8325;49.284;7.238;2023-10-19T11:10:28;96582.25;;;16.20;100.00
16431;BME280;8325;49.284;7.238;2023-10-19T11:14:54;96587.75;;;16.18;100.00
16431;BME280;8325;49.284;7.238;2023-10-19T11:19:06;96600.16;;;16.23;100.00
16431;BME280;8325;49.284;7.238;2023-10-19T11:23:18;96620.19;;;16.24;100.00
16431;BME280;8325;49.284;7.238;2023-10-19T11:27:30;96625.19;;;16.20;100.00
16431;BME280;8325;49.284;7.238;2023-10-19T11:31:56;96618.31;;;16.19;100.00
16431;BME280;8325;49.284;7.238;2023-10-19T11:36:08;96623.38;;;16.26;100.00
16431;BME280;8325;49.284;7.238;2023-10-19T11:40:21;96625.75;;;16.32;100.00
16431;BME280;8325;49.284;7.238;2023-10-19T11:44:33;96620.56;;;16.48;100.00
16431;BME280;8325;49.284;7.238;2023-10-19T11:48:45;96614.25;;;16.64;100.00
16431;BME280;8325;49.284;7.238;2023-10-19T11:52:56;96617.44;;;16.66;100.00
16431;BME280;8325;49.284;7.238;2023-10-19T11:57:08;96611.66;;;16.69;100.00
16431;BME280;8325;49.284;7.238;2023-10-19T12:01:21;96624.03;;;16.64;100.00
16431;BME280;8325;49.284;7.238;2023-10-19T12:05:33;96615.28;;;16.53;100.00
16431;BME280;8325;49.284;7.238;2023-10-19T12:09:48;96624.25;;;16.52;100.00
16431;BME280;8325;49.284;7.238;2023-10-19T12:14:01;96613.41;;;16.38;100.00
16431;BME280;8325;49.284;7.238;2023-10-19T12:18:15;96615.47;;;16.31;100.00
16431;BME280;8325;49.284;7.238;2023-10-19T12:22:27;96597.75;;;16.16;100.00
16431;BME280;8325;49.284;7.238;2023-10-19T12:26:47;96595.34;;;16.04;100.00
16431;BME280;8325;49.284;7.238;2023-10-19T12:30:59;96596.88;;;15.95;100.00
16431;BME280;8325;49.284;7.238;2023-10-19T12:35:11;96588.16;;;15.90;100.00
16431;BME280;8325;49.284;7.238;2023-10-19T12:39:23;96580.22;;;15.84;100.00
16431;BME280;8325;49.284;7.238;2023-10-19T12:43:47;96564.16;;;15.81;100.00
16431;BME280;8325;49.284;7.238;2023-10-19T12:47:59;96563.88;;;15.77;100.00
16431;BME280;8325;49.284;7.238;2023-10-19T12:52:11;96567.56;;;15.81;100.00
16431;BME280;8325;49.284;7.238;2023-10-19T12:56:23;96548.09;;;15.82;100.00
16431;BME280;8325;49.284;7.238;2023-10-19T13:00:41;96537.28;;;15.79;100.00
16431;BME280;8325;49.284;7.238;2023-10-19T13:04:52;96535.94;;;15.76;100.00
16431;BME280;8325;49.284;7.238;2023-10-19T13:09:04;96534.66;;;15.79;100.00
16431;BME280;8325;49.284;7.238;2023-10-19T13:13:16;96525.72;;;15.80;100.00
16431;BME280;8325;49.284;7.238;2023-10-19T13:17:27;96539.13;;;15.78;100.00
16431;BME280;8325;49.284;7.238;2023-10-19T13:21:40;96527.25;;;15.76;100.00
16431;BME280;8325;49.284;7.238;2023-10-19T13:25:53;96522.81;;;15.81;100.00
16431;BME280;8325;49.284;7.238;2023-10-19T13:30:05;96505.47;;;15.80;100.00
16431;BME280;8325;49.284;7.238;2023-10-19T13:34:17;96478.03;;;15.71;100.00
16431;BME280;8325;49.284;7.238;2023-10-19T13:38:29;96466.47;;;15.72;100.00
16431;BME280;8325;49.284;7.238;2023-10-19T13:42:41;96453.06;;;15.79;100.00
16431;BME280;8325;49.284;7.238;2023-10-19T13:46:58;96466.75;;;15.81;100.00
16431;BME280;8325;49.284;7.238;2023-10-19T13:51:16;96458.06;;;15.85;100.00
16431;BME280;8325;49.284;7.238;2023-10-19T13:55:31;96452.81;;;15.85;100.00
16431;BME280;8325;49.284;7.238;2023-10-19T13:59:42;96428.03;;;15.76;100.00
16431;BME280;8325;49.284;7.238;2023-10-19T14:03:54;96389.06;;;15.73;100.00
16431;BME280;8325;49.284;7.238;2023-10-19T14:08:09;96370.16;;;15.81;100.00
16431;BME280;8325;49.284;7.238;2023-10-19T14:12:21;96377.56;;;15.90;100.00
16431;BME280;8325;49.284;7.238;2023-10-19T14:16:33;96398.63;;;16.10;100.00
16431;BME280;8325;49.284;7.238;2023-10-19T14:20:44;96401.81;;;16.17;100.00
16431;BME280;8325;49.284;7.238;2023-10-19T14:24:56;96392.84;;;16.18;100.00
16431;BME280;8325;49.284;7.238;2023-10-19T14:29:07;96373.88;;;16.06;100.00
16431;BME280;8325;49.284;7.238;2023-10-19T14:33:19;96373.13;;;16.10;100.00
16431;BME280;8325;49.284;7.238;2023-10-19T14:37:31;96356.50;;;16.10;100.00
16431;BME280;8325;49.284;7.238;2023-10-19T14:41:43;96346.22;;;16.03;100.00
16431;BME280;8325;49.284;7.238;2023-10-19T14:45:54;96352.28;;;16.04;100.00
16431;BME280;8325;49.284;7.238;2023-10-19T14:50:10;96333.06;;;16.03;100.00
16431;BME280;8325;49.284;7.238;2023-10-19T14:54:22;96312.00;;;15.98;100.00
16431;BME280;8325;49.284;7.238;2023-10-19T14:58:34;96312.25;;;15.86;100.00
16431;BME280;8325;49.284;7.238;2023-10-19T15:02:45;96317.50;;;15.81;100.00
16431;BME280;8325;49.284;7.238;2023-10-19T15:06:57;96324.59;;;15.76;100.00
16431;BME280;8325;49.284;7.238;2023-10-19T15:11:09;96329.09;;;15.70;100.00
16431;BME280;8325;49.284;7.238;2023-10-19T15:15:22;96324.31;;;15.62;100.00
16431;BME280;8325;49.284;7.238;2023-10-19T15:19:34;96320.88;;;15.56;100.00
16431;BME280;8325;49.284;7.238;2023-10-19T15:23:45;96324.28;;;15.52;100.00
16431;BME280;8325;49.284;7.238;2023-10-19T15:27:58;96338.47;;;15.51;100.00
16431;BME280;8325;49.284;7.238;2023-10-19T15:32:10;96339.25;;;15.46;100.00
16431;BME280;8325;49.284;7.238;2023-10-19T15:36:21;96331.09;;;15.42;100.00
16431;BME280;8325;49.284;7.238;2023-10-19T15:40:33;96324.50;;;15.40;100.00
16431;BME280;8325;49.284;7.238;2023-10-19T15:44:46;96317.91;;;15.37;100.00
16431;BME280;8325;49.284;7.238;2023-10-19T15:48:58;96310.78;;;15.33;100.00
16431;BME280;8325;49.284;7.238;2023-10-19T15:53:09;96316.28;;;15.26;100.00
16431;BME280;8325;49.284;7.238;2023-10-19T15:57:22;96305.78;;;15.26;100.00
16431;BME280;8325;49.284;7.238;2023-10-19T16:01:34;96288.94;;;15.22;100.00
16431;BME280;8325;49.284;7.238;2023-10-19T16:05:47;96301.53;;;15.20;100.00
16431;BME280;8325;49.284;7.238;2023-10-19T16:09:59;96303.13;;;15.16;100.00
16431;BME280;8325;49.284;7.238;2023-10-19T16:14:11;96308.34;;;15.11;100.00
16431;BME280;8325;49.284;7.238;2023-10-19T16:18:23;96320.44;;;15.07;100.00
16431;BME280;8325;49.284;7.238;2023-10-19T16:22:38;96324.63;;;15.03;100.00
16431;BME280;8325;49.284;7.238;2023-10-19T16:26:51;96329.34;;;15.01;100.00
16431;BME280;8325;49.284;7.238;2023-10-19T16:31:03;96335.91;;;14.98;100.00
16431;BME280;8325;49.284;7.238;2023-10-19T16:35:16;96340.88;;;14.94;100.00
16431;BME280;8325;49.284;7.238;2023-10-19T16:39:28;96339.31;;;14.93;100.00
16431;BME280;8325;49.284;7.238;2023-10-19T16:43:40;96337.72;;;14.92;100.00
16431;BME280;8325;49.284;7.238;2023-10-19T16:47:53;96335.09;;;14.92;100.00
16431;BME280;8325;49.284;7.238;2023-10-19T16:52:06;96334.56;;;14.90;100.00
16431;BME280;8325;49.284;7.238;2023-10-19T16:56:19;96334.56;;;14.90;100.00
16431;BME280;8325;49.284;7.238;2023-10-19T17:00:31;96326.13;;;14.88;100.00
16431;BME280;8325;49.284;7.238;2023-10-19T17:04:48;96331.91;;;14.85;100.00
16431;BME280;8325;49.284;7.238;2023-10-19T17:09:15;96324.56;;;14.87;100.00
16431;BME280;8325;49.284;7.238;2023-10-19T17:13:32;96334.78;;;14.84;100.00
16431;BME280;8325;49.284;7.238;2023-10-19T17:17:45;96326.66;;;14.85;100.00
16431;BME280;8325;49.284;7.238;2023-10-19T17:21:59;96323.47;;;14.83;100.00
16431;BME280;8325;49.284;7.238;2023-10-19T17:26:12;96325.59;;;14.81;100.00
16431;BME280;8325;49.284;7.238;2023-10-19T17:30:24;96308.50;;;14.84;100.00
16431;BME280;8325;49.284;7.238;2023-10-19T17:34:36;96295.09;;;14.85;100.00
16431;BME280;8325;49.284;7.238;2023-10-19T17:38:48;96286.69;;;14.83;100.00
16431;BME280;8325;49.284;7.238;2023-10-19T17:43:00;96265.94;;;14.82;100.00
16431;BME280;8325;49.284;7.238;2023-10-19T17:47:11;96252.00;;;14.81;100.00
16431;BME280;8325;49.284;7.238;2023-10-19T17:51:24;96236.22;;;14.81;100.00
16431;BME280;8325;49.284;7.238;2023-10-19T17:55:36;96241.50;;;14.81;100.00
16431;BME280;8325;49.284;7.238;2023-10-19T17:59:48;96240.94;;;14.79;100.00
16431;BME280;8325;49.284;7.238;2023-10-19T18:04:00;96223.59;;;14.78;100.00
16431;BME280;8325;49.284;7.238;2023-10-19T18:08:12;96187.84;;;14.77;100.00
16431;BME280;8325;49.284;7.238;2023-10-19T18:12:24;96208.34;;;14.80;100.00
16431;BME280;8325;49.284;7.238;2023-10-19T18:16:36;96208.88;;;14.77;100.00
16431;BME280;8325;49.284;7.238;2023-10-19T18:20:48;96211.75;;;14.76;100.00
16431;BME280;8325;49.284;7.238;2023-10-19T18:24:59;96200.16;;;14.71;100.00
16431;BME280;8325;49.284;7.238;2023-10-19T18:29:11;96194.13;;;14.71;100.00
16431;BME280;8325;49.284;7.238;2023-10-19T18:33:25;96201.22;;;14.70;100.00
16431;BME280;8325;49.284;7.238;2023-10-19T18:37:37;96186.25;;;14.71;100.00
16431;BME280;8325;49.284;7.238;2023-10-19T18:41:49;96183.63;;;14.71;100.00
16431;BME280;8325;49.284;7.238;2023-10-19T18:46:02;96174.72;;;14.72;100.00
16431;BME280;8325;49.284;7.238;2023-10-19T18:50:14;96169.44;;;14.72;100.00
16431;BME280;8325;49.284;7.238;2023-10-19T18:54:45;96175.50;;;14.72;100.00
16431;BME280;8325;49.284;7.238;2023-10-19T18:58:56;96172.88;;;14.72;100.00
16431;BME280;8325;49.284;7.238;2023-10-19T19:03:08;96176.28;;;14.73;100.00
16431;BME280;8325;49.284;7.238;2023-10-19T19:07:20;96180.47;;;14.74;100.00
16431;BME280;8325;49.284;7.238;2023-10-19T19:11:33;96186.78;;;14.73;100.00
16431;BME280;8325;49.284;7.238;2023-10-19T19:15:45;96210.16;;;14.74;100.00
16431;BME280;8325;49.284;7.238;2023-10-19T19:19:56;96200.97;;;14.72;100.00
16431;BME280;8325;49.284;7.238;2023-10-19T19:24:09;96196.50;;;14.72;100.00
16431;BME280;8325;49.284;7.238;2023-10-19T19:28:21;96185.72;;;14.74;100.00
16431;BME280;8325;49.284;7.238;2023-10-19T19:32:33;96186.78;;;14.73;100.00
16431;BME280;8325;49.284;7.238;2023-10-19T19:36:46;96167.84;;;14.71;100.00
16431;BME280;8325;49.284;7.238;2023-10-19T19:40:58;96167.84;;;14.71;100.00
16431;BME280;8325;49.284;7.238;2023-10-19T19:45:13;96165.50;;;14.69;100.00
16431;BME280;8325;49.284;7.238;2023-10-19T19:49:25;96153.94;;;14.70;100.00
16431;BME280;8325;49.284;7.238;2023-10-19T19:53:37;96148.13;;;14.68;100.00
16431;BME280;8325;49.284;7.238;2023-10-19T19:57:49;96163.13;;;14.68;100.00
16431;BME280;8325;49.284;7.238;2023-10-19T20:02:01;96160.50;;;14.68;100.00
16431;BME280;8325;49.284;7.238;2023-10-19T20:06:12;96166.81;;;14.67;100.00
16431;BME280;8325;49.284;7.238;2023-10-19T20:10:44;96159.97;;;14.66;100.00
16431;BME280;8325;49.284;7.238;2023-10-19T20:14:56;96145.00;;;14.66;100.00
16431;BME280;8325;49.284;7.238;2023-10-19T20:19:07;96143.41;;;14.65;100.00
16431;BME280;8325;49.284;7.238;2023-10-19T20:23:20;96127.91;;;14.64;100.00
16431;BME280;8325;49.284;7.238;2023-10-19T20:27:33;96131.59;;;14.63;100.00
16431;BME280;8325;49.284;7.238;2023-10-19T20:31:44;96120.53;;;14.61;100.00
16431;BME280;8325;49.284;7.238;2023-10-19T20:35:56;96125.00;;;14.60;100.00
16431;BME280;8325;49.284;7.238;2023-10-19T20:40:09;96119.47;;;14.62;100.00
16431;BME280;8325;49.284;7.238;2023-10-19T20:44:21;96115.28;;;14.61;100.00
16431;BME280;8325;49.284;7.238;2023-10-19T20:48:41;96092.94;;;14.58;100.00
16431;BME280;8325;49.284;7.238;2023-10-19T20:52:55;96104.00;;;14.60;100.00
16431;BME280;8325;49.284;7.238;2023-10-19T20:57:07;96093.72;;;14.59;100.00
16431;BME280;8325;49.284;7.238;2023-10-19T21:01:18;96093.72;;;14.59;100.00
16431;BME280;8325;49.284;7.238;2023-10-19T21:05:32;96097.97;;;14.60;100.00
16431;BME280;8325;49.284;7.238;2023-10-19T21:09:45;96107.94;;;14.58;100.00
16431;BME280;8325;49.284;7.238;2023-10-19T21:13:57;96098.47;;;14.57;100.00
16431;BME280;8325;49.284;7.238;2023-10-19T21:18:08;96078.50;;;14.56;100.00
16431;BME280;8325;49.284;7.238;2023-10-19T21:22:20;96070.09;;;14.59;100.00
16431;BME280;8325;49.284;7.238;2023-10-19T21:26:32;96070.38;;;14.57;100.00
